BAW53M EGLL-MYNN
Flight info
| Callsign | BAW53M |
|---|---|
| Flight time | N/A |
| Altitude | 32000 |
| Route | GOGSI N621 EVTES N514 ADKIK DCT JOZMA DCT GAPLI/M084F320 DCT OMOKO DCT 48N015W 46N020W 43N030W/M084F340 39N040W 35N050W/M084F360 30N060W 27N070W DCT MILLE/N0484F360 DCT ZQA |
| Aircraft | B77W/H-SDE1E2E3FGHIJ2J3J4J5M1RWXY/LB1D1 |
Departure
| Time | 2026-05-04 02:05 |
|---|---|
| Airport | London Heathrow Airport (EGLL) |
Arrival
| Time | N/A |
|---|---|
| Airport | Lynden Pindling International Airport (MYNN) |
| Time | Latitude | Longitude | Altitude | Speed | Heading |
|---|---|---|---|---|---|
| 2026-05-04 01:47 | 51.46919 | -0.46992 | 95 ft | 0 kts | 270° |
| 2026-05-04 01:54 | 51.46919 | -0.46990 | 91 ft | 1 kts | 270° |
| 2026-05-04 01:55 | 51.46919 | -0.46951 | 93 ft | 4 kts | 270° |
| 2026-05-04 01:55 | 51.46919 | -0.46917 | 94 ft | 4 kts | 271° |
| 2026-05-04 01:55 | 51.46915 | -0.46876 | 92 ft | 4 kts | 306° |
| 2026-05-04 01:55 | 51.46898 | -0.46863 | 94 ft | 4 kts | 359° |
| 2026-05-04 01:56 | 51.46871 | -0.46863 | 93 ft | 4 kts | 359° |
| 2026-05-04 01:56 | 51.46865 | -0.46862 | 93 ft | 0 kts | 360° |
| 2026-05-04 01:59 | 51.46883 | -0.46863 | 90 ft | 11 kts | 359° |
| 2026-05-04 02:00 | 51.47017 | -0.46864 | 92 ft | 22 kts | 359° |
| 2026-05-04 02:00 | 51.47172 | -0.46867 | 91 ft | 22 kts | 359° |
| 2026-05-04 02:00 | 51.47326 | -0.46869 | 94 ft | 22 kts | 359° |
| 2026-05-04 02:00 | 51.47478 | -0.46907 | 94 ft | 22 kts | 347° |
| 2026-05-04 02:01 | 51.47558 | -0.46908 | 93 ft | 9 kts | 32° |
| 2026-05-04 02:01 | 51.47588 | -0.46819 | 93 ft | 10 kts | 79° |
| 2026-05-04 02:01 | 51.47592 | -0.46661 | 92 ft | 20 kts | 89° |
| 2026-05-04 02:01 | 51.47594 | -0.46378 | 94 ft | 31 kts | 89° |
| 2026-05-04 02:02 | 51.47595 | -0.46003 | 94 ft | 34 kts | 90° |
| 2026-05-04 02:02 | 51.47597 | -0.45635 | 92 ft | 31 kts | 89° |
| 2026-05-04 02:02 | 51.47597 | -0.45300 | 91 ft | 30 kts | 90° |
| 2026-05-04 02:02 | 51.47599 | -0.44965 | 91 ft | 30 kts | 89° |
| 2026-05-04 02:03 | 51.47600 | -0.44630 | 91 ft | 30 kts | 90° |
| 2026-05-04 02:03 | 51.47595 | -0.44299 | 95 ft | 30 kts | 97° |
| 2026-05-04 02:03 | 51.47592 | -0.43964 | 94 ft | 30 kts | 89° |
| 2026-05-04 02:03 | 51.47594 | -0.43630 | 94 ft | 30 kts | 87° |
| 2026-05-04 02:04 | 51.47699 | -0.43431 | 94 ft | 20 kts | 9° |
| 2026-05-04 02:04 | 51.47766 | -0.43522 | 94 ft | 15 kts | 270° |
| 2026-05-04 02:04 | 51.47766 | -0.43735 | 92 ft | 38 kts | 270° |
| 2026-05-04 02:04 | 51.47763 | -0.44553 | 93 ft | 109 kts | 270° |
| 2026-05-04 02:05 | 51.47759 | -0.46134 | 95 ft | 170 kts | 270° |
| 2026-05-04 02:05 | 51.47775 | -0.48206 | 377 ft | 190 kts | 271° |
| 2026-05-04 02:05 | 51.47763 | -0.50401 | 806 ft | 203 kts | 269° |
| 2026-05-04 02:05 | 51.47735 | -0.52684 | 1378 ft | 210 kts | 267° |
| 2026-05-04 02:06 | 51.47482 | -0.55122 | 1682 ft | 231 kts | 256° |
| 2026-05-04 02:06 | 51.47058 | -0.57660 | 2367 ft | 238 kts | 255° |
| 2026-05-04 02:06 | 51.46629 | -0.60250 | 3110 ft | 243 kts | 255° |
| 2026-05-04 02:06 | 51.46201 | -0.62896 | 3800 ft | 249 kts | 255° |
| 2026-05-04 02:07 | 51.45771 | -0.65632 | 4478 ft | 256 kts | 257° |
| 2026-05-04 02:07 | 51.45507 | -0.68454 | 5235 ft | 260 kts | 264° |
| 2026-05-04 02:07 | 51.45420 | -0.71364 | 5885 ft | 264 kts | 268° |
| 2026-05-04 02:07 | 51.45395 | -0.74314 | 6361 ft | 260 kts | 268° |
| 2026-05-04 02:08 | 51.45375 | -0.77245 | 7059 ft | 265 kts | 268° |
| 2026-05-04 02:08 | 51.45350 | -0.80236 | 7750 ft | 270 kts | 268° |
| 2026-05-04 02:08 | 51.45137 | -0.83177 | 8321 ft | 272 kts | 247° |
| 2026-05-04 02:08 | 51.43998 | -0.85564 | 8916 ft | 275 kts | 213° |
| 2026-05-04 02:09 | 51.42300 | -0.86969 | 9553 ft | 277 kts | 207° |
| 2026-05-04 02:09 | 51.40581 | -0.88440 | 10149 ft | 282 kts | 208° |
| 2026-05-04 02:09 | 51.38791 | -0.89946 | 10462 ft | 302 kts | 209° |
| 2026-05-04 02:09 | 51.36900 | -0.91681 | 10661 ft | 325 kts | 211° |
| 2026-05-04 02:10 | 51.34920 | -0.93676 | 10849 ft | 348 kts | 214° |
| 2026-05-04 02:10 | 51.32878 | -0.95902 | 11332 ft | 360 kts | 214° |
| 2026-05-04 02:10 | 51.30801 | -0.98203 | 12090 ft | 366 kts | 214° |
| 2026-05-04 02:10 | 51.28692 | -1.00536 | 12866 ft | 370 kts | 214° |
| 2026-05-04 02:11 | 51.26536 | -1.02818 | 13698 ft | 374 kts | 212° |
| 2026-05-04 02:11 | 51.24342 | -1.05065 | 14451 ft | 376 kts | 212° |
| 2026-05-04 02:11 | 51.22150 | -1.07299 | 15212 ft | 379 kts | 212° |
| 2026-05-04 02:11 | 51.19922 | -1.09574 | 15966 ft | 382 kts | 212° |
| 2026-05-04 02:12 | 51.17677 | -1.11876 | 16699 ft | 385 kts | 213° |
| 2026-05-04 02:12 | 51.15383 | -1.14233 | 17462 ft | 389 kts | 213° |
| 2026-05-04 02:12 | 51.13099 | -1.16577 | 18184 ft | 392 kts | 213° |
| 2026-05-04 02:12 | 51.10807 | -1.18959 | 18835 ft | 395 kts | 215° |
| 2026-05-04 02:13 | 51.08677 | -1.21660 | 19456 ft | 398 kts | 222° |
| 2026-05-04 02:13 | 51.06684 | -1.24760 | 20093 ft | 401 kts | 226° |
| 2026-05-04 02:13 | 51.04887 | -1.28175 | 20718 ft | 404 kts | 232° |
| 2026-05-04 02:13 | 51.03169 | -1.31734 | 21323 ft | 407 kts | 232° |
| 2026-05-04 02:14 | 51.01533 | -1.35425 | 21911 ft | 411 kts | 238° |
| 2026-05-04 02:14 | 51.00194 | -1.39463 | 22511 ft | 415 kts | 244° |
| 2026-05-04 02:14 | 50.99091 | -1.43721 | 23179 ft | 417 kts | 249° |
| 2026-05-04 02:14 | 50.98284 | -1.48149 | 23798 ft | 419 kts | 253° |
| 2026-05-04 02:15 | 50.97534 | -1.52637 | 24245 ft | 423 kts | 253° |
| 2026-05-04 02:15 | 50.96778 | -1.57176 | 24664 ft | 427 kts | 253° |
| 2026-05-04 02:15 | 50.96012 | -1.61733 | 25099 ft | 430 kts | 252° |
| 2026-05-04 02:15 | 50.95230 | -1.66331 | 25558 ft | 432 kts | 252° |
| 2026-05-04 02:16 | 50.94446 | -1.70891 | 25994 ft | 435 kts | 252° |
| 2026-05-04 02:16 | 50.93644 | -1.75530 | 26419 ft | 438 kts | 252° |
| 2026-05-04 02:16 | 50.92833 | -1.80196 | 26838 ft | 441 kts | 252° |
| 2026-05-04 02:16 | 50.92013 | -1.84902 | 27238 ft | 444 kts | 252° |
| 2026-05-04 02:17 | 50.91184 | -1.89651 | 27639 ft | 447 kts | 252° |
| 2026-05-04 02:17 | 50.90348 | -1.94430 | 27939 ft | 452 kts | 252° |
| 2026-05-04 02:17 | 50.89503 | -1.99236 | 28310 ft | 454 kts | 252° |
| 2026-05-04 02:17 | 50.88655 | -2.04062 | 28695 ft | 456 kts | 252° |
| 2026-05-04 02:18 | 50.87813 | -2.08867 | 29043 ft | 459 kts | 252° |
| 2026-05-04 02:18 | 50.86957 | -2.13741 | 29361 ft | 461 kts | 252° |
| 2026-05-04 02:18 | 50.86094 | -2.18652 | 29702 ft | 463 kts | 251° |
| 2026-05-04 02:18 | 50.85229 | -2.23560 | 30140 ft | 461 kts | 251° |
| 2026-05-04 02:19 | 50.84366 | -2.28440 | 30568 ft | 460 kts | 251° |
| 2026-05-04 02:19 | 50.83501 | -2.33323 | 30863 ft | 461 kts | 251° |
| 2026-05-04 02:19 | 50.82629 | -2.38219 | 31031 ft | 465 kts | 251° |
| 2026-05-04 02:19 | 50.81748 | -2.43163 | 31228 ft | 468 kts | 251° |
| 2026-05-04 02:20 | 50.80865 | -2.48104 | 31555 ft | 467 kts | 251° |
| 2026-05-04 02:20 | 50.79981 | -2.53041 | 31880 ft | 467 kts | 252° |
| 2026-05-04 02:20 | 50.78595 | -2.63110 | 31967 ft | 473 kts | 257° |
| 2026-05-04 02:21 | 50.77467 | -2.73311 | 31961 ft | 468 kts | 257° |
| 2026-05-04 02:21 | 50.76326 | -2.83433 | 31979 ft | 469 kts | 257° |
| 2026-05-04 02:22 | 50.75125 | -2.93666 | 31974 ft | 477 kts | 257° |
| 2026-05-04 02:22 | 50.73897 | -3.03952 | 31968 ft | 476 kts | 257° |
| 2026-05-04 02:23 | 50.72660 | -3.14226 | 31957 ft | 475 kts | 257° |
| 2026-05-04 02:23 | 50.71429 | -3.24383 | 31962 ft | 474 kts | 257° |
| 2026-05-04 02:24 | 50.70178 | -3.34616 | 31966 ft | 475 kts | 257° |
| 2026-05-04 02:24 | 50.68917 | -3.44862 | 31961 ft | 476 kts | 257° |
| 2026-05-04 02:25 | 50.67645 | -3.55124 | 31971 ft | 477 kts | 257° |
| 2026-05-04 02:25 | 50.66361 | -3.65401 | 31968 ft | 478 kts | 257° |
| 2026-05-04 02:26 | 50.65063 | -3.75707 | 31977 ft | 479 kts | 257° |
| 2026-05-04 02:26 | 50.63757 | -3.86022 | 31973 ft | 481 kts | 257° |
| 2026-05-04 02:27 | 50.62442 | -3.96293 | 31956 ft | 481 kts | 257° |
| 2026-05-04 02:27 | 50.61047 | -4.06622 | 31963 ft | 482 kts | 256° |
| 2026-05-04 02:28 | 50.59619 | -4.16935 | 31962 ft | 482 kts | 256° |
| 2026-05-04 02:28 | 50.58188 | -4.27248 | 31958 ft | 483 kts | 256° |
| 2026-05-04 02:29 | 50.56752 | -4.37575 | 31956 ft | 483 kts | 256° |
| 2026-05-04 02:29 | 50.55311 | -4.47886 | 31949 ft | 483 kts | 256° |
| 2026-05-04 02:30 | 50.53863 | -4.58181 | 31962 ft | 482 kts | 256° |
| 2026-05-04 02:30 | 50.52405 | -4.68464 | 31956 ft | 482 kts | 256° |
| 2026-05-04 02:31 | 50.50947 | -4.78681 | 31944 ft | 483 kts | 256° |
| 2026-05-04 02:31 | 50.49468 | -4.88969 | 31940 ft | 483 kts | 256° |
| 2026-05-04 02:32 | 50.47978 | -4.99273 | 31940 ft | 483 kts | 256° |
| 2026-05-04 02:32 | 50.46477 | -5.09581 | 31940 ft | 484 kts | 256° |
| 2026-05-04 02:33 | 50.44968 | -5.19874 | 31942 ft | 484 kts | 256° |
| 2026-05-04 02:33 | 50.43449 | -5.30162 | 31942 ft | 484 kts | 256° |
| 2026-05-04 02:34 | 50.41922 | -5.40445 | 31946 ft | 484 kts | 256° |
| 2026-05-04 02:34 | 50.40385 | -5.50725 | 31950 ft | 484 kts | 256° |
| 2026-05-04 02:35 | 50.38840 | -5.60984 | 31955 ft | 484 kts | 256° |
| 2026-05-04 02:35 | 50.37295 | -5.71189 | 31955 ft | 486 kts | 256° |
| 2026-05-04 02:36 | 50.35703 | -5.81622 | 31964 ft | 498 kts | 256° |
| 2026-05-04 02:36 | 50.34067 | -5.92281 | 31959 ft | 507 kts | 256° |
| 2026-05-04 02:37 | 50.32408 | -6.03016 | 31955 ft | 507 kts | 256° |
| 2026-05-04 02:37 | 50.30742 | -6.13736 | 31954 ft | 506 kts | 256° |
| 2026-05-04 02:38 | 50.29066 | -6.24440 | 31957 ft | 506 kts | 256° |
| 2026-05-04 02:38 | 50.27395 | -6.35048 | 31958 ft | 505 kts | 256° |
| 2026-05-04 02:39 | 50.25704 | -6.45703 | 31962 ft | 505 kts | 256° |
| 2026-05-04 02:39 | 50.24003 | -6.56359 | 31960 ft | 506 kts | 256° |
| 2026-05-04 02:40 | 50.22576 | -6.65249 | 31971 ft | 507 kts | 256° |
| 2026-05-04 02:40 | 50.20851 | -6.75932 | 31958 ft | 507 kts | 255° |
| 2026-05-04 02:41 | 50.19115 | -6.86605 | 31960 ft | 507 kts | 255° |
| 2026-05-04 02:41 | 50.17369 | -6.97272 | 31959 ft | 507 kts | 255° |
| 2026-05-04 02:42 | 50.15614 | -7.07938 | 31963 ft | 507 kts | 255° |
| 2026-05-04 02:42 | 50.13846 | -7.18614 | 31965 ft | 507 kts | 255° |
| 2026-05-04 02:43 | 50.12083 | -7.29189 | 31964 ft | 507 kts | 255° |
| 2026-05-04 02:43 | 50.10294 | -7.39850 | 31962 ft | 508 kts | 255° |
| 2026-05-04 02:44 | 50.08491 | -7.50536 | 31966 ft | 509 kts | 255° |
| 2026-05-04 02:44 | 50.06678 | -7.61212 | 31966 ft | 510 kts | 255° |
| 2026-05-04 02:45 | 50.04867 | -7.71814 | 31966 ft | 511 kts | 255° |
| 2026-05-04 02:45 | 50.03031 | -7.82498 | 31961 ft | 512 kts | 255° |
| 2026-05-04 02:46 | 50.01183 | -7.93197 | 31967 ft | 512 kts | 255° |
| 2026-05-04 02:46 | 49.99094 | -8.03797 | 31959 ft | 513 kts | 248° |
| 2026-05-04 02:47 | 49.96324 | -8.14018 | 31971 ft | 513 kts | 247° |
| 2026-05-04 02:47 | 49.93517 | -8.24233 | 31961 ft | 515 kts | 247° |
| 2026-05-04 02:48 | 49.90740 | -8.34438 | 31971 ft | 517 kts | 247° |
| 2026-05-04 02:48 | 49.87947 | -8.44741 | 31988 ft | 519 kts | 247° |
| 2026-05-04 02:49 | 49.85143 | -8.55053 | 31960 ft | 512 kts | 247° |
| 2026-05-04 02:49 | 49.82388 | -8.65137 | 31982 ft | 512 kts | 247° |
| 2026-05-04 02:50 | 49.79590 | -8.75322 | 31978 ft | 515 kts | 247° |
| 2026-05-04 02:50 | 49.76772 | -8.85542 | 31980 ft | 517 kts | 247° |
| 2026-05-04 02:51 | 49.73930 | -8.95798 | 31980 ft | 519 kts | 247° |
| 2026-05-04 02:51 | 49.71092 | -9.05998 | 31976 ft | 519 kts | 247° |
| 2026-05-04 02:52 | 49.68220 | -9.16273 | 31976 ft | 522 kts | 248° |
| 2026-05-04 02:52 | 49.65323 | -9.26595 | 32034 ft | 526 kts | 248° |
| 2026-05-04 02:53 | 49.63865 | -9.31773 | 32254 ft | 525 kts | 247° |
| 2026-05-04 02:53 | 49.62409 | -9.36934 | 32561 ft | 523 kts | 247° |
| 2026-05-04 02:53 | 49.60957 | -9.42065 | 32907 ft | 520 kts | 247° |
| 2026-05-04 02:53 | 49.59510 | -9.47169 | 33230 ft | 518 kts | 247° |
| 2026-05-04 02:54 | 49.58063 | -9.52262 | 33523 ft | 516 kts | 247° |
| 2026-05-04 02:54 | 49.56642 | -9.57255 | 33808 ft | 514 kts | 247° |
| 2026-05-04 02:54 | 49.55203 | -9.62303 | 33959 ft | 515 kts | 247° |
| 2026-05-04 02:54 | 49.53757 | -9.67361 | 33971 ft | 516 kts | 247° |
| 2026-05-04 02:55 | 49.49440 | -9.82399 | 33978 ft | 509 kts | 247° |
| 2026-05-04 02:56 | 49.46565 | -9.92362 | 33991 ft | 509 kts | 247° |
| 2026-05-04 02:56 | 49.43686 | -10.02301 | 33987 ft | 509 kts | 246° |
| 2026-05-04 02:57 | 49.40810 | -10.12188 | 33990 ft | 510 kts | 246° |
| 2026-05-04 02:57 | 49.37904 | -10.22135 | 33991 ft | 510 kts | 246° |
| 2026-05-04 02:58 | 49.34989 | -10.32071 | 33976 ft | 511 kts | 246° |
| 2026-05-04 02:58 | 49.32054 | -10.42033 | 33986 ft | 512 kts | 246° |
| 2026-05-04 02:59 | 49.29129 | -10.51926 | 33998 ft | 513 kts | 246° |
| 2026-05-04 02:59 | 49.26169 | -10.61892 | 34001 ft | 514 kts | 246° |
| 2026-05-04 03:00 | 49.23196 | -10.71861 | 33982 ft | 515 kts | 246° |
| 2026-05-04 03:00 | 49.20216 | -10.81813 | 34009 ft | 514 kts | 246° |
| 2026-05-04 03:01 | 49.17229 | -10.91751 | 34012 ft | 514 kts | 246° |
| 2026-05-04 03:01 | 49.14233 | -11.01679 | 33996 ft | 514 kts | 246° |
| 2026-05-04 03:02 | 49.11233 | -11.11577 | 33986 ft | 514 kts | 246° |
| 2026-05-04 03:02 | 49.08211 | -11.21507 | 34022 ft | 515 kts | 246° |
| 2026-05-04 03:03 | 49.05199 | -11.31367 | 34017 ft | 517 kts | 246° |
| 2026-05-04 03:03 | 49.02146 | -11.41321 | 34023 ft | 518 kts | 246° |
| 2026-05-04 03:04 | 48.99081 | -11.51272 | 34011 ft | 519 kts | 246° |
| 2026-05-04 03:04 | 48.95999 | -11.61240 | 34024 ft | 520 kts | 246° |
| 2026-05-04 03:05 | 48.92922 | -11.71154 | 34032 ft | 521 kts | 246° |
| 2026-05-04 03:05 | 48.89811 | -11.81136 | 34034 ft | 521 kts | 246° |
| 2026-05-04 03:06 | 48.86705 | -11.91065 | 34022 ft | 520 kts | 246° |
| 2026-05-04 03:06 | 48.83622 | -12.00972 | 34039 ft | 518 kts | 248° |
| 2026-05-04 03:07 | 48.80915 | -12.11092 | 34044 ft | 516 kts | 250° |
| 2026-05-04 03:07 | 48.78292 | -12.21168 | 34051 ft | 517 kts | 250° |
| 2026-05-04 03:08 | 48.75626 | -12.31313 | 34042 ft | 518 kts | 250° |
| 2026-05-04 03:08 | 48.72933 | -12.41438 | 34056 ft | 519 kts | 250° |
| 2026-05-04 03:09 | 48.70234 | -12.51520 | 34070 ft | 519 kts | 250° |
| 2026-05-04 03:09 | 48.67514 | -12.61637 | 34074 ft | 519 kts | 250° |
| 2026-05-04 03:10 | 48.64778 | -12.71769 | 34054 ft | 519 kts | 250° |
| 2026-05-04 03:10 | 48.62040 | -12.81870 | 34071 ft | 519 kts | 250° |
| 2026-05-04 03:11 | 48.59296 | -12.91953 | 34076 ft | 519 kts | 250° |
| 2026-05-04 03:11 | 48.56539 | -13.02037 | 34095 ft | 519 kts | 250° |
| 2026-05-04 03:12 | 48.53793 | -13.12038 | 34084 ft | 518 kts | 250° |
| 2026-05-04 03:12 | 48.51026 | -13.22073 | 34090 ft | 518 kts | 250° |
| 2026-05-04 03:13 | 48.48250 | -13.32099 | 34091 ft | 517 kts | 250° |
| 2026-05-04 03:13 | 48.45466 | -13.42112 | 34105 ft | 517 kts | 250° |
| 2026-05-04 03:14 | 48.42674 | -13.52111 | 34102 ft | 518 kts | 250° |
| 2026-05-04 03:14 | 48.39873 | -13.62102 | 34107 ft | 518 kts | 250° |
| 2026-05-04 03:15 | 48.37073 | -13.72044 | 34112 ft | 518 kts | 250° |
| 2026-05-04 03:15 | 48.34248 | -13.82034 | 34114 ft | 519 kts | 250° |
| 2026-05-04 03:16 | 48.31416 | -13.92010 | 34109 ft | 518 kts | 250° |
| 2026-05-04 03:16 | 48.28576 | -14.01969 | 34108 ft | 518 kts | 250° |
| 2026-05-04 03:17 | 48.25731 | -14.11910 | 34129 ft | 519 kts | 250° |
| 2026-05-04 03:17 | 48.22871 | -14.21858 | 34136 ft | 519 kts | 250° |
| 2026-05-04 03:18 | 48.20024 | -14.31719 | 34125 ft | 518 kts | 250° |
| 2026-05-04 03:18 | 48.17145 | -14.41652 | 34146 ft | 518 kts | 250° |
| 2026-05-04 03:19 | 48.14268 | -14.51539 | 34147 ft | 518 kts | 250° |
| 2026-05-04 03:19 | 48.11383 | -14.61414 | 34140 ft | 517 kts | 250° |
| 2026-05-04 03:20 | 48.08493 | -14.71263 | 34137 ft | 516 kts | 250° |
| 2026-05-04 03:20 | 48.05615 | -14.81039 | 34149 ft | 516 kts | 250° |
| 2026-05-04 03:21 | 48.02712 | -14.90862 | 34150 ft | 516 kts | 250° |
| 2026-05-04 03:21 | 47.99776 | -15.00667 | 34155 ft | 517 kts | 248° |
| 2026-05-04 03:22 | 47.96383 | -15.10102 | 34163 ft | 519 kts | 245° |
| 2026-05-04 03:22 | 47.92884 | -15.19526 | 34162 ft | 519 kts | 245° |
| 2026-05-04 03:23 | 47.89391 | -15.28959 | 34169 ft | 520 kts | 245° |
| 2026-05-04 03:23 | 47.85903 | -15.38408 | 34131 ft | 520 kts | 245° |
| 2026-05-04 03:24 | 47.82438 | -15.47782 | 34162 ft | 520 kts | 245° |
| 2026-05-04 03:24 | 47.78942 | -15.57204 | 34176 ft | 520 kts | 245° |
| 2026-05-04 03:25 | 47.75434 | -15.66618 | 34172 ft | 520 kts | 245° |
| 2026-05-04 03:25 | 47.71919 | -15.76019 | 34152 ft | 520 kts | 245° |
| 2026-05-04 03:26 | 47.68397 | -15.85401 | 34178 ft | 519 kts | 245° |
| 2026-05-04 03:26 | 47.64878 | -15.94746 | 34182 ft | 518 kts | 245° |
| 2026-05-04 03:27 | 47.61949 | -16.02499 | 34184 ft | 518 kts | 245° |
| 2026-05-04 03:27 | 47.58421 | -16.11807 | 34166 ft | 517 kts | 245° |
| 2026-05-04 03:28 | 47.54321 | -16.22586 | 34177 ft | 516 kts | 245° |
| 2026-05-04 03:28 | 47.51364 | -16.30333 | 34204 ft | 516 kts | 245° |
| 2026-05-04 03:29 | 47.47829 | -16.39563 | 34213 ft | 515 kts | 245° |
| 2026-05-04 03:29 | 47.44314 | -16.48707 | 34183 ft | 513 kts | 245° |
| 2026-05-04 03:30 | 47.40807 | -16.57798 | 34195 ft | 507 kts | 245° |
| 2026-05-04 03:30 | 47.37309 | -16.66844 | 34207 ft | 507 kts | 245° |
| 2026-05-04 03:31 | 47.33799 | -16.75890 | 34213 ft | 508 kts | 245° |
| 2026-05-04 03:31 | 47.30279 | -16.84930 | 34191 ft | 508 kts | 244° |
| 2026-05-04 03:32 | 47.26754 | -16.93948 | 34204 ft | 508 kts | 244° |
| 2026-05-04 03:32 | 47.23241 | -17.02909 | 34208 ft | 507 kts | 244° |
| 2026-05-04 03:33 | 47.19709 | -17.11887 | 34217 ft | 507 kts | 244° |
| 2026-05-04 03:33 | 47.16169 | -17.20855 | 34216 ft | 507 kts | 244° |
| 2026-05-04 03:34 | 47.12617 | -17.29824 | 34217 ft | 507 kts | 244° |
| 2026-05-04 03:34 | 47.09065 | -17.38764 | 34234 ft | 507 kts | 244° |
| 2026-05-04 03:35 | 47.05526 | -17.47641 | 34225 ft | 506 kts | 244° |
| 2026-05-04 03:35 | 47.01967 | -17.56540 | 34225 ft | 505 kts | 244° |
| 2026-05-04 03:36 | 46.98413 | -17.65398 | 34231 ft | 504 kts | 244° |
| 2026-05-04 03:36 | 46.94860 | -17.74225 | 34233 ft | 503 kts | 244° |
| 2026-05-04 03:37 | 46.91298 | -17.83046 | 34235 ft | 503 kts | 244° |
| 2026-05-04 03:37 | 46.87732 | -17.91847 | 34229 ft | 501 kts | 244° |
| 2026-05-04 03:38 | 46.84196 | -18.00547 | 34231 ft | 501 kts | 244° |
| 2026-05-04 03:38 | 46.80634 | -18.09283 | 34239 ft | 500 kts | 244° |
| 2026-05-04 03:39 | 46.77066 | -18.18007 | 34242 ft | 500 kts | 244° |
| 2026-05-04 03:39 | 46.73496 | -18.26704 | 34238 ft | 499 kts | 244° |
| 2026-05-04 03:40 | 46.69929 | -18.35371 | 34243 ft | 498 kts | 244° |
| 2026-05-04 03:40 | 46.66356 | -18.44024 | 34246 ft | 498 kts | 244° |
| 2026-05-04 03:41 | 46.62777 | -18.52664 | 34217 ft | 497 kts | 243° |
| 2026-05-04 03:41 | 46.59222 | -18.61220 | 34251 ft | 496 kts | 243° |
| 2026-05-04 03:42 | 46.55641 | -18.69811 | 34257 ft | 496 kts | 243° |
| 2026-05-04 03:42 | 46.52055 | -18.78389 | 34258 ft | 496 kts | 243° |
| 2026-05-04 03:43 | 46.48464 | -18.86950 | 34237 ft | 496 kts | 243° |
| 2026-05-04 03:43 | 46.44892 | -18.95440 | 34254 ft | 496 kts | 243° |
| 2026-05-04 03:44 | 46.41291 | -19.03973 | 34262 ft | 496 kts | 243° |
| 2026-05-04 03:44 | 46.37684 | -19.12491 | 34270 ft | 496 kts | 243° |
| 2026-05-04 03:45 | 46.34070 | -19.21004 | 34248 ft | 494 kts | 243° |
| 2026-05-04 03:45 | 46.30468 | -19.29458 | 34259 ft | 492 kts | 243° |
| 2026-05-04 03:46 | 46.26893 | -19.37826 | 34265 ft | 491 kts | 243° |
| 2026-05-04 03:46 | 46.23289 | -19.46239 | 34269 ft | 490 kts | 243° |
| 2026-05-04 03:47 | 46.19722 | -19.54539 | 34273 ft | 488 kts | 244° |
| 2026-05-04 03:47 | 46.16134 | -19.62862 | 34265 ft | 488 kts | 244° |
| 2026-05-04 03:48 | 46.12545 | -19.71166 | 34271 ft | 487 kts | 244° |
| 2026-05-04 03:48 | 46.08957 | -19.79441 | 34275 ft | 486 kts | 243° |
| 2026-05-04 03:49 | 46.05367 | -19.87701 | 34259 ft | 486 kts | 243° |
| 2026-05-04 03:49 | 46.01795 | -19.95898 | 34268 ft | 486 kts | 244° |
| 2026-05-04 03:50 | 45.98806 | -20.04504 | 34276 ft | 476 kts | 256° |
| 2026-05-04 03:50 | 45.96654 | -20.13516 | 34283 ft | 476 kts | 256° |
| 2026-05-04 03:51 | 45.94492 | -20.22514 | 34275 ft | 476 kts | 256° |
| 2026-05-04 03:51 | 45.92309 | -20.31453 | 34280 ft | 477 kts | 256° |
| 2026-05-04 03:52 | 45.90093 | -20.40449 | 34281 ft | 478 kts | 256° |
| 2026-05-04 03:52 | 45.87861 | -20.49458 | 34280 ft | 478 kts | 256° |
| 2026-05-04 03:53 | 45.85625 | -20.58454 | 34277 ft | 478 kts | 255° |
| 2026-05-04 03:53 | 45.83398 | -20.67384 | 34283 ft | 478 kts | 255° |
| 2026-05-04 03:54 | 45.81151 | -20.76359 | 34285 ft | 478 kts | 255° |
| 2026-05-04 03:54 | 45.78895 | -20.85332 | 34285 ft | 478 kts | 255° |
| 2026-05-04 03:55 | 45.76649 | -20.94231 | 34283 ft | 477 kts | 255° |
| 2026-05-04 03:55 | 45.74385 | -21.03170 | 34287 ft | 477 kts | 255° |
| 2026-05-04 03:56 | 45.72111 | -21.12111 | 34288 ft | 478 kts | 255° |
| 2026-05-04 03:56 | 45.69832 | -21.21038 | 34292 ft | 478 kts | 255° |
| 2026-05-04 03:57 | 45.67544 | -21.29964 | 34286 ft | 477 kts | 255° |
| 2026-05-04 03:57 | 45.65251 | -21.38874 | 34292 ft | 478 kts | 255° |
| 2026-05-04 03:58 | 45.61809 | -21.52192 | 34294 ft | 478 kts | 255° |
| 2026-05-04 03:58 | 45.59496 | -21.61093 | 34282 ft | 477 kts | 254° |
| 2026-05-04 03:59 | 45.57177 | -21.69988 | 34290 ft | 477 kts | 254° |
| 2026-05-04 03:59 | 45.54853 | -21.78865 | 34295 ft | 477 kts | 254° |
| 2026-05-04 04:00 | 45.52521 | -21.87741 | 34304 ft | 478 kts | 254° |
| 2026-05-04 04:00 | 45.50200 | -21.96543 | 34294 ft | 477 kts | 253° |
| 2026-05-04 04:01 | 45.47856 | -22.05399 | 34304 ft | 477 kts | 253° |
| 2026-05-04 04:01 | 45.45506 | -22.14241 | 34304 ft | 477 kts | 253° |
| 2026-05-04 04:02 | 45.43151 | -22.23072 | 34305 ft | 477 kts | 253° |
| 2026-05-04 04:02 | 45.40786 | -22.31911 | 34297 ft | 477 kts | 253° |
| 2026-05-04 04:03 | 45.38432 | -22.40670 | 34307 ft | 476 kts | 253° |
| 2026-05-04 04:03 | 45.36057 | -22.49478 | 34307 ft | 477 kts | 253° |
| 2026-05-04 04:04 | 45.33674 | -22.58282 | 34310 ft | 477 kts | 253° |
| 2026-05-04 04:04 | 45.31285 | -22.67072 | 34307 ft | 476 kts | 253° |
| 2026-05-04 04:05 | 45.28895 | -22.75837 | 34308 ft | 476 kts | 253° |
| 2026-05-04 04:05 | 45.26513 | -22.84544 | 34319 ft | 475 kts | 252° |
| 2026-05-04 04:06 | 45.24108 | -22.93299 | 34320 ft | 475 kts | 252° |
| 2026-05-04 04:06 | 45.21703 | -23.02025 | 34311 ft | 474 kts | 252° |
| 2026-05-04 04:07 | 45.19290 | -23.10745 | 34320 ft | 474 kts | 252° |
| 2026-05-04 04:07 | 45.16877 | -23.19440 | 34321 ft | 474 kts | 252° |
| 2026-05-04 04:08 | 45.14469 | -23.28081 | 34322 ft | 474 kts | 252° |
| 2026-05-04 04:08 | 45.12044 | -23.36756 | 34314 ft | 473 kts | 252° |
| 2026-05-04 04:09 | 45.09614 | -23.45413 | 34324 ft | 473 kts | 252° |
| 2026-05-04 04:09 | 45.07178 | -23.54064 | 34332 ft | 473 kts | 252° |
| 2026-05-04 04:10 | 45.04739 | -23.62697 | 34331 ft | 473 kts | 252° |
| 2026-05-04 04:10 | 45.02288 | -23.71340 | 34335 ft | 473 kts | 251° |
| 2026-05-04 04:11 | 44.99832 | -23.79968 | 34332 ft | 473 kts | 251° |
| 2026-05-04 04:11 | 44.97384 | -23.88538 | 34319 ft | 473 kts | 251° |
| 2026-05-04 04:12 | 44.94915 | -23.97155 | 34323 ft | 473 kts | 251° |
| 2026-05-04 04:12 | 44.92431 | -24.05793 | 34346 ft | 473 kts | 251° |
| 2026-05-04 04:13 | 44.89949 | -24.14393 | 34344 ft | 473 kts | 251° |
| 2026-05-04 04:13 | 44.87473 | -24.22942 | 34342 ft | 473 kts | 251° |
| 2026-05-04 04:14 | 44.84978 | -24.31528 | 34342 ft | 473 kts | 251° |
| 2026-05-04 04:14 | 44.82473 | -24.40120 | 34343 ft | 473 kts | 251° |
| 2026-05-04 04:15 | 44.79965 | -24.48692 | 34346 ft | 473 kts | 251° |
| 2026-05-04 04:15 | 44.77454 | -24.57245 | 34352 ft | 473 kts | 251° |
| 2026-05-04 04:16 | 44.74945 | -24.65762 | 34347 ft | 473 kts | 250° |
| 2026-05-04 04:16 | 44.72416 | -24.74316 | 34352 ft | 473 kts | 250° |
| 2026-05-04 04:17 | 44.69882 | -24.82860 | 34357 ft | 473 kts | 250° |
| 2026-05-04 04:17 | 44.67765 | -24.89977 | 34355 ft | 474 kts | 250° |
| 2026-05-04 04:18 | 44.65219 | -24.98510 | 34349 ft | 474 kts | 250° |
| 2026-05-04 04:18 | 44.62245 | -25.08438 | 34364 ft | 474 kts | 250° |
| 2026-05-04 04:19 | 44.60097 | -25.15582 | 34364 ft | 474 kts | 250° |
| 2026-05-04 04:19 | 44.57546 | -25.24047 | 34367 ft | 474 kts | 250° |
| 2026-05-04 04:20 | 44.54968 | -25.32569 | 34362 ft | 474 kts | 249° |
| 2026-05-04 04:20 | 44.52382 | -25.41091 | 34373 ft | 474 kts | 249° |
| 2026-05-04 04:21 | 44.49793 | -25.49595 | 34374 ft | 475 kts | 249° |
| 2026-05-04 04:21 | 44.47194 | -25.58099 | 34375 ft | 475 kts | 249° |
| 2026-05-04 04:22 | 44.44598 | -25.66569 | 34378 ft | 475 kts | 249° |
| 2026-05-04 04:22 | 44.41986 | -25.75064 | 34386 ft | 475 kts | 249° |
| 2026-05-04 04:23 | 44.39363 | -25.83564 | 34384 ft | 476 kts | 249° |
| 2026-05-04 04:23 | 44.36732 | -25.92063 | 34375 ft | 476 kts | 248° |
| 2026-05-04 04:24 | 44.34094 | -26.00557 | 34380 ft | 476 kts | 248° |
| 2026-05-04 04:24 | 44.31465 | -26.08993 | 34384 ft | 476 kts | 248° |
| 2026-05-04 04:25 | 44.28813 | -26.17476 | 34385 ft | 477 kts | 248° |
| 2026-05-04 04:25 | 44.26153 | -26.25957 | 34379 ft | 477 kts | 248° |
| 2026-05-04 04:26 | 44.23483 | -26.34441 | 34389 ft | 478 kts | 248° |
| 2026-05-04 04:26 | 44.20804 | -26.42927 | 34387 ft | 478 kts | 248° |
| 2026-05-04 04:27 | 44.18133 | -26.51360 | 34392 ft | 478 kts | 248° |
| 2026-05-04 04:27 | 44.15438 | -26.59840 | 34384 ft | 479 kts | 247° |
| 2026-05-04 04:28 | 44.12735 | -26.68321 | 34388 ft | 479 kts | 247° |
| 2026-05-04 04:28 | 44.10024 | -26.76796 | 34396 ft | 479 kts | 247° |
| 2026-05-04 04:29 | 44.07304 | -26.85273 | 34404 ft | 479 kts | 247° |
| 2026-05-04 04:29 | 44.04580 | -26.93738 | 34384 ft | 480 kts | 246° |
| 2026-05-04 04:30 | 44.01866 | -27.02140 | 34397 ft | 480 kts | 246° |
| 2026-05-04 04:30 | 43.99126 | -27.10599 | 34395 ft | 480 kts | 246° |
| 2026-05-04 04:31 | 43.96374 | -27.19066 | 34399 ft | 480 kts | 246° |
| 2026-05-04 04:31 | 43.93620 | -27.27514 | 34402 ft | 480 kts | 246° |
| 2026-05-04 04:32 | 43.90864 | -27.35940 | 34404 ft | 480 kts | 246° |
| 2026-05-04 04:32 | 43.88117 | -27.44311 | 34397 ft | 480 kts | 246° |
| 2026-05-04 04:33 | 43.85349 | -27.52723 | 34396 ft | 480 kts | 246° |
| 2026-05-04 04:33 | 43.82573 | -27.61130 | 34408 ft | 480 kts | 246° |
| 2026-05-04 04:34 | 43.79788 | -27.69539 | 34402 ft | 480 kts | 246° |
| 2026-05-04 04:34 | 43.76994 | -27.77947 | 34400 ft | 481 kts | 246° |
| 2026-05-04 04:35 | 43.74189 | -27.86362 | 34399 ft | 481 kts | 246° |
| 2026-05-04 04:35 | 43.71382 | -27.94760 | 34395 ft | 481 kts | 245° |
| 2026-05-04 04:36 | 43.68568 | -28.03150 | 34416 ft | 481 kts | 245° |
| 2026-05-04 04:36 | 43.65764 | -28.11483 | 34396 ft | 481 kts | 245° |
| 2026-05-04 04:37 | 43.60100 | -28.28239 | 34404 ft | 481 kts | 245° |
| 2026-05-04 04:38 | 43.57260 | -28.36604 | 34398 ft | 481 kts | 245° |
| 2026-05-04 04:38 | 43.54410 | -28.44970 | 34403 ft | 482 kts | 245° |
| 2026-05-04 04:39 | 43.51552 | -28.53336 | 34398 ft | 482 kts | 245° |
| 2026-05-04 04:39 | 43.48708 | -28.61633 | 34421 ft | 482 kts | 244° |
| 2026-05-04 04:40 | 43.45840 | -28.69976 | 34409 ft | 482 kts | 244° |
| 2026-05-04 04:40 | 43.42963 | -28.78317 | 34404 ft | 482 kts | 244° |
| 2026-05-04 04:41 | 43.40082 | -28.86646 | 34401 ft | 483 kts | 244° |
| 2026-05-04 04:41 | 43.37189 | -28.94986 | 34405 ft | 483 kts | 244° |
| 2026-05-04 04:42 | 43.34309 | -29.03262 | 34408 ft | 483 kts | 244° |
| 2026-05-04 04:42 | 43.31397 | -29.11604 | 34413 ft | 484 kts | 244° |
| 2026-05-04 04:43 | 43.28476 | -29.19946 | 34424 ft | 484 kts | 244° |
| 2026-05-04 04:43 | 43.25571 | -29.28221 | 34402 ft | 484 kts | 244° |
| 2026-05-04 04:44 | 43.22645 | -29.36528 | 34415 ft | 484 kts | 243° |
| 2026-05-04 04:44 | 43.19708 | -29.44841 | 34411 ft | 484 kts | 243° |
| 2026-05-04 04:45 | 43.16765 | -29.53146 | 34414 ft | 484 kts | 243° |
| 2026-05-04 04:47 | 43.06443 | -29.82081 | 34409 ft | 484 kts | 243° |
| 2026-05-04 04:47 | 43.03468 | -29.90368 | 34417 ft | 484 kts | 244° |
| 2026-05-04 04:48 | 43.00497 | -29.98619 | 34406 ft | 484 kts | 244° |
| 2026-05-04 04:49 | 42.93449 | -30.19423 | 34403 ft | 483 kts | 245° |
| 2026-05-04 04:49 | 42.90657 | -30.27771 | 34401 ft | 483 kts | 245° |
| 2026-05-04 04:50 | 42.87842 | -30.36105 | 34409 ft | 483 kts | 245° |
| 2026-05-04 04:50 | 42.85016 | -30.44429 | 34409 ft | 483 kts | 245° |
| 2026-05-04 04:51 | 42.82183 | -30.52743 | 34403 ft | 484 kts | 245° |
| 2026-05-04 04:51 | 42.79343 | -30.61061 | 34400 ft | 484 kts | 245° |
| 2026-05-04 04:52 | 42.76500 | -30.69362 | 34407 ft | 484 kts | 245° |
| 2026-05-04 04:52 | 42.73665 | -30.77615 | 34404 ft | 484 kts | 245° |
| 2026-05-04 04:53 | 42.70806 | -30.85913 | 34412 ft | 484 kts | 245° |
| 2026-05-04 04:53 | 42.67938 | -30.94209 | 34404 ft | 485 kts | 245° |
| 2026-05-04 04:54 | 42.65063 | -31.02505 | 34398 ft | 485 kts | 245° |
| 2026-05-04 04:54 | 42.62181 | -31.10790 | 34395 ft | 485 kts | 246° |
| 2026-05-04 04:55 | 42.59298 | -31.19059 | 34401 ft | 485 kts | 246° |
| 2026-05-04 04:55 | 42.56407 | -31.27324 | 34401 ft | 485 kts | 245° |
| 2026-05-04 04:56 | 42.53511 | -31.35578 | 34391 ft | 485 kts | 246° |
| 2026-05-04 04:56 | 42.50620 | -31.43794 | 34406 ft | 485 kts | 246° |
| 2026-05-04 04:57 | 42.47705 | -31.52056 | 34399 ft | 486 kts | 246° |
| 2026-05-04 04:57 | 42.44785 | -31.60306 | 34397 ft | 486 kts | 246° |
| 2026-05-04 04:58 | 42.41851 | -31.68570 | 34393 ft | 486 kts | 246° |
| 2026-05-04 04:58 | 42.38908 | -31.76836 | 34396 ft | 487 kts | 246° |
| 2026-05-04 04:59 | 42.35960 | -31.85091 | 34386 ft | 487 kts | 246° |
| 2026-05-04 04:59 | 42.33023 | -31.93289 | 34377 ft | 488 kts | 246° |
| 2026-05-04 05:00 | 42.30058 | -32.01543 | 34393 ft | 488 kts | 246° |
| 2026-05-04 05:01 | 42.25598 | -32.13915 | 34389 ft | 489 kts | 246° |
| 2026-05-04 05:01 | 42.22611 | -32.22171 | 34383 ft | 489 kts | 246° |
| 2026-05-04 05:02 | 42.19617 | -32.30420 | 34387 ft | 489 kts | 246° |
| 2026-05-04 05:02 | 42.16620 | -32.38655 | 34385 ft | 489 kts | 246° |
| 2026-05-04 05:03 | 42.13617 | -32.46881 | 34365 ft | 489 kts | 246° |
| 2026-05-04 05:04 | 42.07602 | -32.63287 | 34381 ft | 489 kts | 246° |
| 2026-05-04 05:04 | 42.04580 | -32.71493 | 34378 ft | 489 kts | 246° |
| 2026-05-04 05:06 | 41.92958 | -33.02839 | 34377 ft | 489 kts | 246° |
| 2026-05-04 05:07 | 41.89927 | -33.10956 | 34374 ft | 489 kts | 246° |
| 2026-05-04 05:07 | 41.86875 | -33.19109 | 34370 ft | 489 kts | 246° |
| 2026-05-04 05:09 | 41.73090 | -33.55642 | 34361 ft | 488 kts | 245° |
| 2026-05-04 05:10 | 41.70013 | -33.63733 | 34365 ft | 487 kts | 245° |
| 2026-05-04 05:10 | 41.66928 | -33.71823 | 34362 ft | 487 kts | 245° |
| 2026-05-04 05:11 | 41.63839 | -33.79900 | 34359 ft | 487 kts | 245° |
| 2026-05-04 05:11 | 41.60764 | -33.87921 | 34351 ft | 487 kts | 245° |
| 2026-05-04 05:12 | 41.57664 | -33.95982 | 34355 ft | 487 kts | 245° |
| 2026-05-04 05:12 | 41.54561 | -34.04029 | 34356 ft | 487 kts | 245° |
| 2026-05-04 05:13 | 41.51452 | -34.12068 | 34343 ft | 487 kts | 244° |
| 2026-05-04 05:13 | 41.48345 | -34.20082 | 34352 ft | 486 kts | 244° |
| 2026-05-04 05:14 | 41.45250 | -34.28043 | 34351 ft | 486 kts | 244° |
| 2026-05-04 05:14 | 41.42131 | -34.36043 | 34350 ft | 486 kts | 244° |
| 2026-05-04 05:15 | 41.39009 | -34.44029 | 34350 ft | 485 kts | 244° |
| 2026-05-04 05:15 | 41.35884 | -34.52002 | 34347 ft | 485 kts | 244° |
| 2026-05-04 05:16 | 41.32756 | -34.59959 | 34347 ft | 484 kts | 244° |
| 2026-05-04 05:16 | 41.29628 | -34.67896 | 34344 ft | 484 kts | 244° |
| 2026-05-04 05:17 | 41.26517 | -34.75770 | 34344 ft | 484 kts | 244° |
| 2026-05-04 05:17 | 41.23376 | -34.83696 | 34344 ft | 484 kts | 244° |
| 2026-05-04 05:18 | 41.20235 | -34.91600 | 34332 ft | 484 kts | 244° |
| 2026-05-04 05:18 | 41.17085 | -34.99507 | 34340 ft | 485 kts | 244° |
| 2026-05-04 05:19 | 41.13921 | -35.07430 | 34340 ft | 486 kts | 244° |
| 2026-05-04 05:19 | 41.10743 | -35.15365 | 34338 ft | 487 kts | 244° |
| 2026-05-04 05:20 | 41.07548 | -35.23318 | 34343 ft | 489 kts | 245° |
| 2026-05-04 05:20 | 41.04341 | -35.31286 | 34344 ft | 491 kts | 245° |
| 2026-05-04 05:21 | 41.01132 | -35.39235 | 34340 ft | 492 kts | 245° |
| 2026-05-04 05:21 | 40.97887 | -35.47249 | 34325 ft | 494 kts | 247° |
| 2026-05-04 05:22 | 40.94624 | -35.55287 | 34335 ft | 497 kts | 247° |
| 2026-05-04 05:22 | 40.91340 | -35.63356 | 34329 ft | 499 kts | 246° |
| 2026-05-04 05:23 | 40.88058 | -35.71397 | 34335 ft | 500 kts | 246° |
| 2026-05-04 05:23 | 40.84749 | -35.79482 | 34329 ft | 500 kts | 246° |
| 2026-05-04 05:24 | 40.81441 | -35.87542 | 34324 ft | 499 kts | 246° |
| 2026-05-04 05:24 | 40.78128 | -35.95588 | 34304 ft | 499 kts | 248° |
| 2026-05-04 05:25 | 40.74805 | -36.03646 | 34318 ft | 500 kts | 248° |
| 2026-05-04 05:25 | 40.71465 | -36.11726 | 34325 ft | 502 kts | 248° |
| 2026-05-04 05:26 | 40.68108 | -36.19818 | 34305 ft | 504 kts | 249° |
| 2026-05-04 05:26 | 40.64727 | -36.27944 | 34324 ft | 506 kts | 249° |
| 2026-05-04 05:28 | 40.51086 | -36.60524 | 34309 ft | 511 kts | 250° |
| 2026-05-04 05:29 | 40.47637 | -36.68702 | 34282 ft | 512 kts | 250° |
| 2026-05-04 05:29 | 40.44169 | -36.76908 | 34298 ft | 513 kts | 251° |
| 2026-05-04 05:31 | 40.30246 | -37.09626 | 34298 ft | 515 kts | 251° |
| 2026-05-04 05:32 | 40.26735 | -37.17821 | 34269 ft | 516 kts | 251° |
| 2026-05-04 05:33 | 40.21453 | -37.30108 | 34283 ft | 516 kts | 250° |
| 2026-05-04 05:33 | 40.17927 | -37.38281 | 34299 ft | 516 kts | 250° |
| 2026-05-04 05:34 | 40.14424 | -37.46381 | 34289 ft | 514 kts | 250° |
| 2026-05-04 05:34 | 40.10904 | -37.54494 | 34283 ft | 512 kts | 250° |
| 2026-05-04 05:35 | 40.07392 | -37.62569 | 34285 ft | 510 kts | 250° |
| 2026-05-04 05:35 | 40.03889 | -37.70609 | 34278 ft | 508 kts | 250° |
| 2026-05-04 05:36 | 40.00396 | -37.78603 | 34273 ft | 507 kts | 250° |
| 2026-05-04 05:36 | 39.96901 | -37.86580 | 34284 ft | 506 kts | 250° |
| 2026-05-04 05:37 | 39.93400 | -37.94554 | 34272 ft | 506 kts | 249° |
| 2026-05-04 05:37 | 39.89897 | -38.02509 | 34280 ft | 506 kts | 249° |
| 2026-05-04 05:38 | 39.84651 | -38.14383 | 34277 ft | 507 kts | 249° |
| 2026-05-04 05:38 | 39.81130 | -38.22327 | 34274 ft | 507 kts | 249° |
| 2026-05-04 05:39 | 39.75827 | -38.34253 | 34272 ft | 507 kts | 249° |
| 2026-05-04 05:40 | 39.70508 | -38.46168 | 34265 ft | 507 kts | 249° |
| 2026-05-04 05:40 | 39.66968 | -38.54072 | 34269 ft | 506 kts | 249° |
| 2026-05-04 05:41 | 39.63420 | -38.61976 | 34247 ft | 506 kts | 249° |
| 2026-05-04 05:41 | 39.59892 | -38.69815 | 34264 ft | 506 kts | 249° |
| 2026-05-04 05:42 | 39.56341 | -38.77685 | 34263 ft | 505 kts | 249° |
| 2026-05-04 05:42 | 39.52781 | -38.85556 | 34236 ft | 506 kts | 248° |
| 2026-05-04 05:43 | 39.49217 | -38.93417 | 34258 ft | 506 kts | 248° |
| 2026-05-04 05:45 | 39.34907 | -39.24776 | 34245 ft | 507 kts | 248° |
| 2026-05-04 05:47 | 39.20494 | -39.56048 | 34227 ft | 507 kts | 247° |
| 2026-05-04 05:47 | 39.16901 | -39.63796 | 34233 ft | 507 kts | 247° |
| 2026-05-04 05:48 | 39.13272 | -39.71603 | 34240 ft | 507 kts | 247° |
| 2026-05-04 05:48 | 39.09639 | -39.79402 | 34221 ft | 507 kts | 247° |
| 2026-05-04 05:49 | 39.06618 | -39.85871 | 34229 ft | 507 kts | 247° |
| 2026-05-04 05:49 | 39.02977 | -39.93651 | 34233 ft | 507 kts | 247° |
| 2026-05-04 05:51 | 38.91181 | -40.25929 | 34200 ft | 498 kts | 254° |
| 2026-05-04 05:52 | 38.88396 | -40.34089 | 34222 ft | 498 kts | 254° |
| 2026-05-04 05:52 | 38.85617 | -40.42188 | 34227 ft | 497 kts | 253° |
| 2026-05-04 05:54 | 38.74429 | -40.74586 | 34199 ft | 497 kts | 253° |
| 2026-05-04 05:55 | 38.71615 | -40.82683 | 34205 ft | 497 kts | 253° |
| 2026-05-04 05:55 | 38.68796 | -40.90768 | 34213 ft | 497 kts | 253° |
| 2026-05-04 05:56 | 38.65971 | -40.98852 | 34206 ft | 497 kts | 253° |
| 2026-05-04 05:56 | 38.63155 | -41.06887 | 34192 ft | 498 kts | 253° |
| 2026-05-04 05:57 | 38.60317 | -41.14961 | 34199 ft | 498 kts | 253° |
| 2026-05-04 05:57 | 38.57470 | -41.23038 | 34199 ft | 499 kts | 253° |
| 2026-05-04 05:58 | 38.54612 | -41.31124 | 34193 ft | 499 kts | 253° |
| 2026-05-04 05:58 | 38.51747 | -41.39209 | 34199 ft | 500 kts | 253° |
| 2026-05-04 05:59 | 38.48892 | -41.47244 | 34191 ft | 500 kts | 253° |
| 2026-05-04 05:59 | 38.46006 | -41.55343 | 34188 ft | 500 kts | 252° |
| 2026-05-04 06:00 | 38.43120 | -41.63418 | 34195 ft | 500 kts | 252° |
| 2026-05-04 06:00 | 38.40229 | -41.71489 | 34193 ft | 500 kts | 252° |
| 2026-05-04 06:01 | 38.37331 | -41.79555 | 34186 ft | 500 kts | 252° |
| 2026-05-04 06:03 | 38.25733 | -42.11622 | 34180 ft | 498 kts | 252° |
| 2026-05-04 06:05 | 38.12582 | -42.47578 | 34169 ft | 499 kts | 251° |
| 2026-05-04 06:06 | 38.09639 | -42.55562 | 34185 ft | 499 kts | 251° |
| 2026-05-04 06:06 | 38.06693 | -42.63536 | 34184 ft | 498 kts | 251° |
| 2026-05-04 06:07 | 38.03757 | -42.71466 | 34465 ft | 496 kts | 251° |
| 2026-05-04 06:07 | 38.02299 | -42.75380 | 35107 ft | 487 kts | 251° |
| 2026-05-04 06:07 | 38.00851 | -42.79268 | 35316 ft | 488 kts | 251° |
| 2026-05-04 06:08 | 37.97942 | -42.87096 | 35509 ft | 492 kts | 251° |
| 2026-05-04 06:08 | 37.96479 | -42.91022 | 35733 ft | 491 kts | 251° |
| 2026-05-04 06:08 | 37.95025 | -42.94914 | 36070 ft | 487 kts | 251° |
| 2026-05-04 06:08 | 37.93575 | -42.98785 | 36179 ft | 486 kts | 251° |
| 2026-05-04 06:09 | 37.92127 | -43.02648 | 36187 ft | 481 kts | 251° |
| 2026-05-04 06:11 | 37.80730 | -43.32927 | 36172 ft | 477 kts | 251° |
| 2026-05-04 06:13 | 37.69235 | -43.63149 | 36166 ft | 476 kts | 250° |
| 2026-05-04 06:14 | 37.59158 | -43.89404 | 36152 ft | 473 kts | 250° |
| 2026-05-04 06:15 | 37.56301 | -43.96806 | 36159 ft | 472 kts | 250° |
| 2026-05-04 06:15 | 37.53427 | -44.04238 | 36160 ft | 472 kts | 250° |
| 2026-05-04 06:16 | 37.50549 | -44.11662 | 36144 ft | 471 kts | 250° |
| 2026-05-04 06:16 | 37.47664 | -44.19086 | 36156 ft | 471 kts | 250° |
| 2026-05-04 06:17 | 37.44781 | -44.26485 | 36158 ft | 471 kts | 249° |
| 2026-05-04 06:17 | 37.41895 | -44.33876 | 36144 ft | 471 kts | 249° |
| 2026-05-04 06:18 | 37.39000 | -44.41271 | 36156 ft | 471 kts | 249° |
| 2026-05-04 06:20 | 37.27391 | -44.70753 | 36144 ft | 471 kts | 249° |
| 2026-05-04 06:21 | 37.20109 | -44.89108 | 36144 ft | 470 kts | 248° |
| 2026-05-04 06:22 | 37.17187 | -44.96442 | 36143 ft | 469 kts | 248° |
| 2026-05-04 06:25 | 36.96855 | -45.47018 | 36133 ft | 464 kts | 248° |
| 2026-05-04 06:26 | 36.93933 | -45.54220 | 36141 ft | 464 kts | 248° |
| 2026-05-04 06:26 | 36.91003 | -45.61424 | 36134 ft | 464 kts | 248° |
| 2026-05-04 06:27 | 36.83686 | -45.79350 | 36135 ft | 464 kts | 248° |
| 2026-05-04 06:28 | 36.80750 | -45.86513 | 36131 ft | 463 kts | 248° |
| 2026-05-04 06:28 | 36.77807 | -45.93679 | 36127 ft | 463 kts | 248° |
| 2026-05-04 06:29 | 36.74868 | -46.00818 | 36130 ft | 462 kts | 248° |
| 2026-05-04 06:29 | 36.71929 | -46.07944 | 36131 ft | 462 kts | 247° |
| 2026-05-04 06:30 | 36.68981 | -46.15073 | 36126 ft | 462 kts | 247° |
| 2026-05-04 06:30 | 36.66031 | -46.22193 | 36131 ft | 462 kts | 247° |
| 2026-05-04 06:31 | 36.63096 | -46.29259 | 36128 ft | 462 kts | 247° |
| 2026-05-04 06:31 | 36.60140 | -46.36363 | 36125 ft | 462 kts | 247° |
| 2026-05-04 06:33 | 36.48286 | -46.64688 | 36128 ft | 461 kts | 247° |
| 2026-05-04 06:34 | 36.45313 | -46.71756 | 36125 ft | 461 kts | 247° |
| 2026-05-04 06:34 | 36.42339 | -46.78809 | 36118 ft | 461 kts | 247° |
| 2026-05-04 06:36 | 36.30415 | -47.06935 | 36120 ft | 461 kts | 247° |
| 2026-05-04 06:37 | 36.27926 | -47.12775 | 36122 ft | 461 kts | 247° |
| 2026-05-04 06:37 | 36.24931 | -47.19790 | 36112 ft | 460 kts | 247° |
| 2026-05-04 06:38 | 36.21445 | -47.27935 | 36117 ft | 460 kts | 247° |
| 2026-05-04 06:40 | 36.09940 | -47.54675 | 36117 ft | 458 kts | 246° |
| 2026-05-04 06:40 | 36.06934 | -47.61628 | 36109 ft | 457 kts | 246° |
| 2026-05-04 06:41 | 36.03932 | -47.68555 | 36112 ft | 457 kts | 246° |
| 2026-05-04 06:41 | 36.00948 | -47.75427 | 36114 ft | 456 kts | 246° |
| 2026-05-04 06:42 | 35.97943 | -47.82334 | 36108 ft | 456 kts | 246° |
| 2026-05-04 06:44 | 35.85890 | -48.09890 | 36109 ft | 456 kts | 246° |
| 2026-05-04 06:44 | 35.82865 | -48.16769 | 36111 ft | 456 kts | 246° |
| 2026-05-04 06:45 | 35.79855 | -48.23602 | 36121 ft | 456 kts | 246° |
| 2026-05-04 06:45 | 35.76828 | -48.30457 | 36104 ft | 455 kts | 246° |
| 2026-05-04 06:46 | 35.73794 | -48.37314 | 36110 ft | 455 kts | 246° |
| 2026-05-04 06:46 | 35.70767 | -48.44145 | 36123 ft | 454 kts | 246° |
| 2026-05-04 06:48 | 35.58687 | -48.71259 | 36101 ft | 451 kts | 246° |
| 2026-05-04 06:50 | 35.46578 | -48.98223 | 36116 ft | 452 kts | 246° |
| 2026-05-04 06:51 | 35.43532 | -49.04973 | 36109 ft | 453 kts | 246° |
| 2026-05-04 06:51 | 35.40492 | -49.11695 | 36105 ft | 453 kts | 246° |
| 2026-05-04 06:52 | 35.37423 | -49.18467 | 36115 ft | 453 kts | 246° |
| 2026-05-04 06:52 | 35.34357 | -49.25218 | 36112 ft | 453 kts | 246° |
| 2026-05-04 06:53 | 35.31294 | -49.31950 | 36120 ft | 452 kts | 246° |
| 2026-05-04 06:53 | 35.28234 | -49.38664 | 36107 ft | 451 kts | 246° |
| 2026-05-04 06:54 | 35.25175 | -49.45361 | 36108 ft | 451 kts | 246° |
| 2026-05-04 06:54 | 35.22130 | -49.52016 | 36111 ft | 450 kts | 246° |
| 2026-05-04 06:55 | 35.19063 | -49.58704 | 36113 ft | 450 kts | 245° |
| 2026-05-04 06:55 | 35.15997 | -49.65378 | 36117 ft | 449 kts | 245° |
| 2026-05-04 06:57 | 35.03768 | -49.91875 | 36113 ft | 448 kts | 245° |
| 2026-05-04 06:58 | 35.00698 | -49.98495 | 36116 ft | 448 kts | 245° |
| 2026-05-04 06:58 | 34.97694 | -50.05155 | 36096 ft | 448 kts | 246° |
| 2026-05-04 06:59 | 34.94790 | -50.11884 | 36109 ft | 448 kts | 247° |
| 2026-05-04 06:59 | 34.91901 | -50.18583 | 36109 ft | 449 kts | 247° |
| 2026-05-04 07:01 | 34.80165 | -50.45424 | 36106 ft | 450 kts | 246° |
| 2026-05-04 07:02 | 34.77213 | -50.52132 | 36095 ft | 450 kts | 246° |
| 2026-05-04 07:02 | 34.74254 | -50.58847 | 36101 ft | 450 kts | 246° |
| 2026-05-04 07:03 | 34.71295 | -50.65547 | 36108 ft | 450 kts | 246° |
| 2026-05-04 07:03 | 34.68326 | -50.72255 | 36104 ft | 450 kts | 246° |
| 2026-05-04 07:04 | 34.65353 | -50.78961 | 36096 ft | 451 kts | 246° |
| 2026-05-04 07:04 | 34.62392 | -50.85628 | 36105 ft | 451 kts | 246° |
| 2026-05-04 07:05 | 34.59403 | -50.92344 | 36104 ft | 452 kts | 246° |
| 2026-05-04 07:05 | 34.56405 | -50.99065 | 36094 ft | 452 kts | 246° |
| 2026-05-04 07:06 | 34.51917 | -51.09105 | 36105 ft | 454 kts | 246° |
| 2026-05-04 07:07 | 34.48901 | -51.15835 | 36104 ft | 454 kts | 246° |
| 2026-05-04 07:09 | 34.36749 | -51.42821 | 36108 ft | 458 kts | 246° |
| 2026-05-04 07:09 | 34.33686 | -51.49590 | 36084 ft | 458 kts | 246° |
| 2026-05-04 07:10 | 34.30639 | -51.56311 | 36099 ft | 459 kts | 246° |
| 2026-05-04 07:12 | 34.18321 | -51.83347 | 36115 ft | 459 kts | 245° |
| 2026-05-04 07:12 | 34.15232 | -51.90094 | 36104 ft | 458 kts | 245° |
| 2026-05-04 07:13 | 34.12168 | -51.96773 | 36099 ft | 456 kts | 245° |
| 2026-05-04 07:13 | 34.09087 | -52.03477 | 36100 ft | 455 kts | 245° |
| 2026-05-04 07:14 | 34.01426 | -52.20092 | 36099 ft | 451 kts | 245° |
| 2026-05-04 07:15 | 33.98373 | -52.26692 | 36090 ft | 451 kts | 245° |
| 2026-05-04 07:15 | 33.95335 | -52.33247 | 36115 ft | 450 kts | 245° |
| 2026-05-04 07:16 | 33.92277 | -52.39833 | 36105 ft | 450 kts | 245° |
| 2026-05-04 07:16 | 33.89222 | -52.46401 | 36106 ft | 450 kts | 245° |
| 2026-05-04 07:17 | 33.86161 | -52.52969 | 36105 ft | 449 kts | 245° |
| 2026-05-04 07:17 | 33.83098 | -52.59528 | 36110 ft | 449 kts | 245° |
| 2026-05-04 07:18 | 33.80060 | -52.66023 | 36101 ft | 448 kts | 245° |
| 2026-05-04 07:18 | 33.77000 | -52.72552 | 36104 ft | 448 kts | 245° |
| 2026-05-04 07:19 | 33.73939 | -52.79073 | 36102 ft | 447 kts | 245° |
| 2026-05-04 07:19 | 33.70874 | -52.85588 | 36109 ft | 447 kts | 245° |
| 2026-05-04 07:20 | 33.67831 | -52.92046 | 36111 ft | 447 kts | 245° |
| 2026-05-04 07:20 | 33.64768 | -52.98535 | 36114 ft | 446 kts | 245° |
| 2026-05-04 07:22 | 33.52499 | -53.24406 | 36106 ft | 445 kts | 244° |
| 2026-05-04 07:23 | 33.49446 | -53.30816 | 36104 ft | 445 kts | 244° |
| 2026-05-04 07:23 | 33.46371 | -53.37259 | 36119 ft | 445 kts | 244° |
| 2026-05-04 07:24 | 33.43298 | -53.43688 | 36106 ft | 445 kts | 244° |
| 2026-05-04 07:24 | 33.40220 | -53.50114 | 36101 ft | 445 kts | 244° |
| 2026-05-04 07:26 | 33.27853 | -53.75823 | 36116 ft | 447 kts | 244° |
| 2026-05-04 07:27 | 33.24747 | -53.82250 | 36116 ft | 446 kts | 244° |
| 2026-05-04 07:27 | 33.21638 | -53.88673 | 36112 ft | 446 kts | 244° |
| 2026-05-04 07:28 | 33.19053 | -53.94003 | 36109 ft | 446 kts | 244° |
| 2026-05-04 07:28 | 33.15939 | -54.00415 | 36121 ft | 446 kts | 243° |
| 2026-05-04 07:29 | 33.12828 | -54.06811 | 36103 ft | 445 kts | 243° |
| 2026-05-04 07:29 | 33.09211 | -54.14231 | 36112 ft | 445 kts | 243° |
| 2026-05-04 07:30 | 33.06605 | -54.19568 | 36109 ft | 445 kts | 243° |
| 2026-05-04 07:30 | 33.03507 | -54.25904 | 36122 ft | 445 kts | 243° |
| 2026-05-04 07:31 | 33.00389 | -54.32267 | 36088 ft | 444 kts | 243° |
| 2026-05-04 07:33 | 32.87890 | -54.57671 | 36105 ft | 444 kts | 243° |
| 2026-05-04 07:33 | 32.84755 | -54.64013 | 36105 ft | 444 kts | 243° |
| 2026-05-04 07:34 | 32.81619 | -54.70348 | 36106 ft | 443 kts | 243° |
| 2026-05-04 07:34 | 32.78509 | -54.76621 | 36122 ft | 443 kts | 243° |
| 2026-05-04 07:35 | 32.75377 | -54.82926 | 36090 ft | 442 kts | 243° |
| 2026-05-04 07:35 | 32.72253 | -54.89203 | 36101 ft | 441 kts | 243° |
| 2026-05-04 07:36 | 32.69129 | -54.95473 | 36111 ft | 441 kts | 243° |
| 2026-05-04 07:38 | 32.56585 | -55.20533 | 36111 ft | 442 kts | 243° |
| 2026-05-04 07:38 | 32.53436 | -55.26798 | 36112 ft | 442 kts | 242° |
| 2026-05-04 07:39 | 32.50306 | -55.33014 | 36111 ft | 442 kts | 242° |
| 2026-05-04 07:39 | 32.47149 | -55.39273 | 36092 ft | 442 kts | 242° |
| 2026-05-04 07:40 | 32.43995 | -55.45516 | 36106 ft | 442 kts | 242° |
| 2026-05-04 07:40 | 32.40831 | -55.51768 | 36110 ft | 442 kts | 242° |
| 2026-05-04 07:41 | 32.37667 | -55.58010 | 36112 ft | 442 kts | 242° |
| 2026-05-04 07:41 | 32.34501 | -55.64246 | 36111 ft | 441 kts | 242° |
| 2026-05-04 07:42 | 32.31334 | -55.70472 | 36107 ft | 441 kts | 242° |
| 2026-05-04 07:42 | 32.28188 | -55.76647 | 36113 ft | 441 kts | 242° |
| 2026-05-04 07:43 | 32.25022 | -55.82853 | 36119 ft | 441 kts | 242° |
| 2026-05-04 07:43 | 32.21850 | -55.89058 | 36113 ft | 441 kts | 242° |
| 2026-05-04 07:44 | 32.18675 | -55.95260 | 36097 ft | 440 kts | 242° |
| 2026-05-04 07:44 | 32.15499 | -56.01453 | 36112 ft | 441 kts | 242° |
| 2026-05-04 07:45 | 32.12340 | -56.07605 | 36115 ft | 441 kts | 242° |
| 2026-05-04 07:45 | 32.09151 | -56.13804 | 36113 ft | 442 kts | 242° |
| 2026-05-04 07:46 | 32.05955 | -56.20005 | 36111 ft | 442 kts | 242° |
| 2026-05-04 07:46 | 32.02754 | -56.26207 | 36104 ft | 443 kts | 242° |
| 2026-05-04 07:47 | 31.99539 | -56.32425 | 36129 ft | 444 kts | 242° |
| 2026-05-04 07:49 | 31.86693 | -56.57169 | 36114 ft | 443 kts | 242° |
| 2026-05-04 07:49 | 31.83473 | -56.63345 | 36120 ft | 443 kts | 242° |
| 2026-05-04 07:50 | 31.80246 | -56.69526 | 36116 ft | 443 kts | 242° |
| 2026-05-04 07:50 | 31.77022 | -56.75690 | 36117 ft | 442 kts | 242° |
| 2026-05-04 07:51 | 31.73793 | -56.81854 | 36111 ft | 442 kts | 242° |
| 2026-05-04 07:51 | 31.70583 | -56.87973 | 36123 ft | 442 kts | 242° |
| 2026-05-04 07:52 | 31.67350 | -56.94124 | 36116 ft | 442 kts | 242° |
| 2026-05-04 07:52 | 31.64115 | -57.00271 | 36118 ft | 442 kts | 242° |
| 2026-05-04 07:54 | 31.51148 | -57.24808 | 36117 ft | 441 kts | 242° |
| 2026-05-04 07:55 | 31.47927 | -57.30878 | 36117 ft | 441 kts | 242° |
| 2026-05-04 07:55 | 31.44685 | -57.36979 | 36117 ft | 440 kts | 242° |
| 2026-05-04 07:56 | 31.41448 | -57.43060 | 36122 ft | 439 kts | 242° |
| 2026-05-04 07:56 | 31.38239 | -57.49079 | 36117 ft | 438 kts | 242° |
| 2026-05-04 07:57 | 31.35017 | -57.55114 | 36115 ft | 436 kts | 242° |
| 2026-05-04 07:57 | 31.31800 | -57.61129 | 36113 ft | 436 kts | 242° |
| 2026-05-04 07:58 | 31.28583 | -57.67137 | 36119 ft | 436 kts | 241° |
| 2026-05-04 07:58 | 31.25361 | -57.73143 | 36115 ft | 436 kts | 241° |
| 2026-05-04 07:59 | 31.22133 | -57.79153 | 36118 ft | 437 kts | 241° |
| 2026-05-04 07:59 | 31.18895 | -57.85170 | 36115 ft | 437 kts | 241° |
| 2026-05-04 08:00 | 31.15654 | -57.91184 | 36118 ft | 437 kts | 241° |
| 2026-05-04 08:02 | 31.02678 | -58.15170 | 36114 ft | 437 kts | 241° |
| 2026-05-04 08:02 | 30.99425 | -58.21159 | 36133 ft | 437 kts | 241° |
| 2026-05-04 08:03 | 30.96172 | -58.27140 | 36115 ft | 436 kts | 241° |
| 2026-05-04 08:03 | 30.92916 | -58.33116 | 36118 ft | 436 kts | 241° |
| 2026-05-04 08:04 | 30.89665 | -58.39076 | 36114 ft | 436 kts | 241° |
| 2026-05-04 08:04 | 30.86407 | -58.45039 | 36118 ft | 436 kts | 241° |
| 2026-05-04 08:05 | 30.83147 | -58.50995 | 36107 ft | 436 kts | 240° |
| 2026-05-04 08:05 | 30.79908 | -58.56906 | 36117 ft | 435 kts | 240° |
| 2026-05-04 08:06 | 30.76644 | -58.62853 | 36115 ft | 436 kts | 240° |
| 2026-05-04 08:06 | 30.73377 | -58.68796 | 36117 ft | 436 kts | 240° |
| 2026-05-04 08:08 | 30.60277 | -58.92537 | 36120 ft | 438 kts | 240° |
| 2026-05-04 08:11 | 30.45390 | -59.19345 | 36117 ft | 438 kts | 240° |
| 2026-05-04 08:11 | 30.40455 | -59.28193 | 36117 ft | 438 kts | 240° |
| 2026-05-04 08:12 | 30.37138 | -59.34127 | 36124 ft | 438 kts | 240° |
| 2026-05-04 08:12 | 30.33823 | -59.40050 | 36096 ft | 437 kts | 240° |
| 2026-05-04 08:13 | 30.30511 | -59.45961 | 36118 ft | 437 kts | 240° |
| 2026-05-04 08:13 | 30.27192 | -59.51873 | 36118 ft | 438 kts | 240° |
| 2026-05-04 08:14 | 30.23888 | -59.57752 | 36116 ft | 439 kts | 240° |
| 2026-05-04 08:16 | 30.11116 | -59.80392 | 36113 ft | 438 kts | 240° |
| 2026-05-04 08:16 | 30.07790 | -59.86268 | 36115 ft | 439 kts | 240° |
| 2026-05-04 08:17 | 30.04444 | -59.92172 | 36128 ft | 439 kts | 240° |
| 2026-05-04 08:17 | 30.01248 | -59.98163 | 36117 ft | 436 kts | 245° |
| 2026-05-04 08:19 | 29.93696 | -60.24556 | 36124 ft | 435 kts | 254° |
| 2026-05-04 08:20 | 29.91980 | -60.31240 | 36105 ft | 434 kts | 254° |
| 2026-05-04 08:20 | 29.90256 | -60.37923 | 36106 ft | 434 kts | 254° |
| 2026-05-04 08:21 | 29.88531 | -60.44588 | 36109 ft | 433 kts | 254° |
| 2026-05-04 08:21 | 29.86806 | -60.51238 | 36116 ft | 433 kts | 254° |
| 2026-05-04 08:22 | 29.85081 | -60.57874 | 36109 ft | 432 kts | 254° |
| 2026-05-04 08:24 | 29.78174 | -60.84300 | 36104 ft | 431 kts | 254° |
| 2026-05-04 08:24 | 29.76439 | -60.90902 | 36104 ft | 430 kts | 254° |
| 2026-05-04 08:25 | 29.74703 | -60.97491 | 36105 ft | 430 kts | 254° |
| 2026-05-04 08:25 | 29.72965 | -61.04076 | 36103 ft | 430 kts | 254° |
| 2026-05-04 08:27 | 29.65975 | -61.30407 | 36101 ft | 431 kts | 253° |
| 2026-05-04 08:28 | 29.64213 | -61.37005 | 36109 ft | 431 kts | 253° |
| 2026-05-04 08:28 | 29.62453 | -61.43585 | 36099 ft | 430 kts | 253° |
| 2026-05-04 08:29 | 29.60690 | -61.50159 | 36072 ft | 429 kts | 253° |
| 2026-05-04 08:31 | 29.53622 | -61.76378 | 36095 ft | 432 kts | 253° |
| 2026-05-04 08:33 | 29.46456 | -62.02731 | 36079 ft | 431 kts | 253° |
| 2026-05-04 08:35 | 29.39269 | -62.28933 | 36095 ft | 431 kts | 253° |
| 2026-05-04 08:35 | 29.37463 | -62.35482 | 36093 ft | 430 kts | 253° |
| 2026-05-04 08:37 | 29.31138 | -62.58309 | 36092 ft | 429 kts | 253° |
| 2026-05-04 08:38 | 29.29322 | -62.64834 | 36091 ft | 430 kts | 253° |
| 2026-05-04 08:38 | 29.27498 | -62.71372 | 36091 ft | 430 kts | 253° |
| 2026-05-04 08:40 | 29.20194 | -62.97419 | 36087 ft | 429 kts | 253° |
| 2026-05-04 08:41 | 29.18364 | -63.03910 | 36058 ft | 428 kts | 253° |
| 2026-05-04 08:41 | 29.16528 | -63.10409 | 36078 ft | 429 kts | 253° |
| 2026-05-04 08:42 | 29.14688 | -63.16912 | 36094 ft | 429 kts | 253° |
| 2026-05-04 08:42 | 29.12854 | -63.23376 | 36089 ft | 430 kts | 252° |
| 2026-05-04 08:43 | 29.11001 | -63.29896 | 36086 ft | 430 kts | 252° |
| 2026-05-04 08:43 | 29.09150 | -63.36395 | 36087 ft | 430 kts | 252° |
| 2026-05-04 08:44 | 29.07297 | -63.42888 | 36087 ft | 430 kts | 252° |
| 2026-05-04 08:46 | 28.99882 | -63.68741 | 36085 ft | 428 kts | 252° |
| 2026-05-04 08:46 | 28.98016 | -63.75213 | 36102 ft | 429 kts | 252° |
| 2026-05-04 08:47 | 28.96156 | -63.81649 | 36089 ft | 429 kts | 252° |
| 2026-05-04 08:47 | 28.94283 | -63.88119 | 36084 ft | 428 kts | 252° |
| 2026-05-04 08:48 | 28.92411 | -63.94573 | 36086 ft | 428 kts | 252° |
| 2026-05-04 08:48 | 28.90538 | -64.01020 | 36083 ft | 427 kts | 252° |
| 2026-05-04 08:49 | 28.88664 | -64.07457 | 36095 ft | 427 kts | 252° |
| 2026-05-04 08:50 | 28.82101 | -64.29890 | 36085 ft | 427 kts | 252° |
| 2026-05-04 08:51 | 28.80209 | -64.36331 | 36097 ft | 428 kts | 252° |
| 2026-05-04 08:51 | 28.78317 | -64.42759 | 36085 ft | 427 kts | 252° |
| 2026-05-04 08:52 | 28.76425 | -64.49173 | 36078 ft | 426 kts | 252° |
| 2026-05-04 08:52 | 28.74544 | -64.55536 | 36078 ft | 426 kts | 252° |
| 2026-05-04 08:54 | 28.66938 | -64.81147 | 36075 ft | 430 kts | 252° |
| 2026-05-04 08:55 | 28.65012 | -64.87599 | 36078 ft | 431 kts | 252° |
| 2026-05-04 08:55 | 28.63080 | -64.94060 | 36076 ft | 431 kts | 252° |
| 2026-05-04 09:01 | 28.43021 | -65.60408 | 36073 ft | 430 kts | 251° |
| 2026-05-04 09:01 | 28.41058 | -65.66831 | 36073 ft | 430 kts | 251° |
| 2026-05-04 09:02 | 28.39095 | -65.73242 | 36069 ft | 429 kts | 251° |
| 2026-05-04 09:02 | 28.37131 | -65.79642 | 36073 ft | 428 kts | 251° |
| 2026-05-04 09:03 | 28.35181 | -65.85987 | 36071 ft | 428 kts | 251° |
| 2026-05-04 09:03 | 28.33216 | -65.92367 | 36067 ft | 428 kts | 251° |
| 2026-05-04 09:04 | 28.31250 | -65.98740 | 36076 ft | 427 kts | 251° |